sensor_id;sensor_type;location;lat;lon;timestamp;pressure;altitude;pressure_sealevel;temperature;humidity
72548;BME280;60570;50.848;6.776;2022-09-20T00:00:40;101136.69;;;15.87;62.07
72548;BME280;60570;50.848;6.776;2022-09-20T00:01:41;101137.84;;;15.86;62.07
72548;BME280;60570;50.848;6.776;2022-09-20T00:02:41;101132.97;;;15.83;62.16
72548;BME280;60570;50.848;6.776;2022-09-20T00:03:47;101141.25;;;15.80;62.25
72548;BME280;60570;50.848;6.776;2022-09-20T00:04:47;101139.53;;;15.75;62.44
72548;BME280;60570;50.848;6.776;2022-09-20T00:05:48;101132.84;;;15.80;62.53
72548;BME280;60570;50.848;6.776;2022-09-20T00:06:49;101132.16;;;15.83;62.40
72548;BME280;60570;50.848;6.776;2022-09-20T00:07:49;101134.47;;;15.81;62.55
72548;BME280;60570;50.848;6.776;2022-09-20T00:08:49;101134.47;;;15.81;62.40
72548;BME280;60570;50.848;6.776;2022-09-20T00:09:50;101129.06;;;15.88;62.36
72548;BME280;60570;50.848;6.776;2022-09-20T00:10:50;101131.88;;;15.88;62.12
72548;BME280;60570;50.848;6.776;2022-09-20T00:11:53;101124.19;;;15.85;62.42
72548;BME280;60570;50.848;6.776;2022-09-20T00:12:53;101123.63;;;15.79;62.39
72548;BME280;60570;50.848;6.776;2022-09-20T00:13:55;101128.28;;;15.87;62.11
72548;BME280;60570;50.848;6.776;2022-09-20T00:14:57;101125.47;;;15.87;62.47
72548;BME280;60570;50.848;6.776;2022-09-20T00:15:58;101125.47;;;15.87;62.24
72548;BME280;60570;50.848;6.776;2022-09-20T00:16:59;101123.94;;;15.90;61.77
72548;BME280;60570;50.848;6.776;2022-09-20T00:17:59;101118.34;;;15.90;62.04
72548;BME280;60570;50.848;6.776;2022-09-20T00:19:01;101116.72;;;15.89;62.11
72548;BME280;60570;50.848;6.776;2022-09-20T00:20:03;101117.31;;;15.82;62.21
72548;BME280;60570;50.848;6.776;2022-09-20T00:21:04;101124.91;;;15.82;62.23
72548;BME280;60570;50.848;6.776;2022-09-20T00:22:04;101132.16;;;15.83;62.22
72548;BME280;60570;50.848;6.776;2022-09-20T00:23:04;101128.16;;;15.84;62.49
72548;BME280;60570;50.848;6.776;2022-09-20T00:24:05;101130.25;;;15.87;62.06
72548;BME280;60570;50.848;6.776;2022-09-20T00:25:06;101123.00;;;15.86;62.45
72548;BME280;60570;50.848;6.776;2022-09-20T00:26:07;101131.88;;;15.88;62.16
72548;BME280;60570;50.848;6.776;2022-09-20T00:27:07;101128.97;;;15.84;62.48
72548;BME280;60570;50.848;6.776;2022-09-20T00:28:08;101136.47;;;15.80;62.43
72548;BME280;60570;50.848;6.776;2022-09-20T00:29:09;101125.72;;;15.82;62.10
72548;BME280;60570;50.848;6.776;2022-09-20T00:30:12;101126.53;;;15.83;62.30
72548;BME280;60570;50.848;6.776;2022-09-20T00:31:13;101128.41;;;15.79;62.31
72548;BME280;60570;50.848;6.776;2022-09-20T00:32:14;101125.34;;;15.84;61.98
72548;BME280;60570;50.848;6.776;2022-09-20T00:33:14;101129.94;;;15.76;62.48
72548;BME280;60570;50.848;6.776;2022-09-20T00:34:15;101131.22;;;15.79;62.34
72548;BME280;60570;50.848;6.776;2022-09-20T00:35:34;101127.13;;;15.76;62.52
72548;BME280;60570;50.848;6.776;2022-09-20T00:36:34;101129.94;;;15.76;62.30
72548;BME280;60570;50.848;6.776;2022-09-20T00:37:39;101126.44;;;15.79;62.42
72548;BME280;60570;50.848;6.776;2022-09-20T00:38:40;101127.97;;;15.77;62.30
72548;BME280;60570;50.848;6.776;2022-09-20T00:39:41;101125.63;;;15.79;62.31
72548;BME280;60570;50.848;6.776;2022-09-20T00:40:43;101121.91;;;15.75;62.22
72548;BME280;60570;50.848;6.776;2022-09-20T00:41:44;101125.16;;;15.77;62.33
72548;BME280;60570;50.848;6.776;2022-09-20T00:42:45;101131.31;;;15.82;62.34
72548;BME280;60570;50.848;6.776;2022-09-20T00:43:46;101125.25;;;15.80;62.26
72548;BME280;60570;50.848;6.776;2022-09-20T00:45:53;101124.69;;;15.75;62.53
72548;BME280;60570;50.848;6.776;2022-09-20T00:46:54;101123.50;;;15.76;62.40
72548;BME280;60570;50.848;6.776;2022-09-20T00:48:17;101117.56;;;15.77;62.40
72548;BME280;60570;50.848;6.776;2022-09-20T00:49:25;101122.56;;;15.84;62.21
72548;BME280;60570;50.848;6.776;2022-09-20T00:50:35;101126.91;;;15.81;62.39
72548;BME280;60570;50.848;6.776;2022-09-20T00:51:43;101122.91;;;15.82;62.11
72548;BME280;60570;50.848;6.776;2022-09-20T00:52:46;101125.81;;;15.86;62.10
72548;BME280;60570;50.848;6.776;2022-09-20T00:53:49;101123.28;;;15.81;62.34
72548;BME280;60570;50.848;6.776;2022-09-20T00:54:50;101124.91;;;15.82;62.26
72548;BME280;60570;50.848;6.776;2022-09-20T00:55:54;101126.44;;;15.79;62.23
72548;BME280;60570;50.848;6.776;2022-09-20T00:56:57;101129.94;;;15.76;62.40
72548;BME280;60570;50.848;6.776;2022-09-20T00:57:57;101132.50;;;15.81;62.26
72548;BME280;60570;50.848;6.776;2022-09-20T00:59:21;101130.16;;;15.83;62.29
72548;BME280;60570;50.848;6.776;2022-09-20T01:00:25;101123.94;;;15.90;62.09
72548;BME280;60570;50.848;6.776;2022-09-20T01:01:26;101127.00;;;15.85;62.08
72548;BME280;60570;50.848;6.776;2022-09-20T01:02:29;101127.69;;;15.82;62.17
72548;BME280;60570;50.848;6.776;2022-09-20T01:03:31;101127.47;;;15.87;62.03
72548;BME280;60570;50.848;6.776;2022-09-20T01:04:34;101119.88;;;15.87;61.84
72548;BME280;60570;50.848;6.776;2022-09-20T01:05:38;101126.63;;;15.86;61.51
72548;BME280;60570;50.848;6.776;2022-09-20T01:06:40;101128.06;;;15.80;62.31
72548;BME280;60570;50.848;6.776;2022-09-20T01:07:42;101125.13;;;15.89;62.04
72548;BME280;60570;50.848;6.776;2022-09-20T01:08:47;101121.50;;;15.88;61.68
72548;BME280;60570;50.848;6.776;2022-09-20T01:09:50;101125.34;;;15.84;62.17
72548;BME280;60570;50.848;6.776;2022-09-20T01:10:51;101120.94;;;15.83;62.12
72548;BME280;60570;50.848;6.776;2022-09-20T01:11:53;101124.28;;;15.88;62.25
72548;BME280;60570;50.848;6.776;2022-09-20T01:12:55;101127.38;;;15.83;62.05
72548;BME280;60570;50.848;6.776;2022-09-20T01:13:55;101125.81;;;15.86;62.25
72548;BME280;60570;50.848;6.776;2022-09-20T01:14:58;101121.75;;;15.83;62.20
72548;BME280;60570;50.848;6.776;2022-09-20T01:15:59;101123.75;;;15.83;62.09
72548;BME280;60570;50.848;6.776;2022-09-20T01:17:03;101127.09;;;15.88;61.82
72548;BME280;60570;50.848;6.776;2022-09-20T01:18:06;101122.81;;;15.79;62.31
72548;BME280;60570;50.848;6.776;2022-09-20T01:20:48;101125.72;;;15.82;62.20
72548;BME280;60570;50.848;6.776;2022-09-20T01:21:50;101127.25;;;15.80;62.28
72548;BME280;60570;50.848;6.776;2022-09-20T01:24:19;101125.25;;;15.80;62.40
72548;BME280;60570;50.848;6.776;2022-09-20T01:27:57;101128.78;;;15.77;62.21
72548;BME280;60570;50.848;6.776;2022-09-20T01:29:39;101126.78;;;15.78;62.34
72548;BME280;60570;50.848;6.776;2022-09-20T01:32:12;101126.44;;;15.79;62.21
72548;BME280;60570;50.848;6.776;2022-09-20T01:35:27;101125.72;;;15.82;62.02
72548;BME280;60570;50.848;6.776;2022-09-20T01:36:54;101123.28;;;15.81;62.03
72548;BME280;60570;50.848;6.776;2022-09-20T01:41:11;101126.31;;;15.76;62.27
72548;BME280;60570;50.848;6.776;2022-09-20T01:42:14;101126.47;;;15.67;62.75
72548;BME280;60570;50.848;6.776;2022-09-20T01:43:35;101127.97;;;15.77;62.30
72548;BME280;60570;50.848;6.776;2022-09-20T01:44:44;101129.13;;;15.76;62.25
72548;BME280;60570;50.848;6.776;2022-09-20T01:45:48;101133.31;;;15.82;62.09
72548;BME280;60570;50.848;6.776;2022-09-20T01:46:58;101136.56;;;15.84;62.07
72548;BME280;60570;50.848;6.776;2022-09-20T01:54:16;101132.75;;;15.76;62.45
72548;BME280;60570;50.848;6.776;2022-09-20T02:09:29;101130.03;;;15.80;62.25
72548;BME280;60570;50.848;6.776;2022-09-20T02:16:19;101133.22;;;15.66;62.70
72548;BME280;60570;50.848;6.776;2022-09-20T02:17:37;101132.19;;;15.71;62.39
72548;BME280;60570;50.848;6.776;2022-09-20T02:20:00;101120.97;;;15.71;62.59
72548;BME280;60570;50.848;6.776;2022-09-20T02:25:22;101130.16;;;15.83;61.97
72548;BME280;60570;50.848;6.776;2022-09-20T02:29:00;101128.66;;;15.74;62.24
72548;BME280;60570;50.848;6.776;2022-09-20T02:33:12;101129.84;;;15.73;62.41
72548;BME280;60570;50.848;6.776;2022-09-20T02:34:42;101129.75;;;15.69;62.51
72548;BME280;60570;50.848;6.776;2022-09-20T02:38:31;101121.34;;;15.69;62.61
72548;BME280;60570;50.848;6.776;2022-09-20T02:39:44;101125.41;;;15.72;62.63
72548;BME280;60570;50.848;6.776;2022-09-20T02:40:55;101124.50;;;15.68;62.47
72548;BME280;60570;50.848;6.776;2022-09-20T02:42:16;101117.25;;;15.67;62.81
72548;BME280;60570;50.848;6.776;2022-09-20T02:46:02;101112.53;;;15.83;61.99
72548;BME280;60570;50.848;6.776;2022-09-20T02:48:16;101116.66;;;15.73;62.35
72548;BME280;60570;50.848;6.776;2022-09-20T02:51:16;101116.88;;;15.68;62.36
72548;BME280;60570;50.848;6.776;2022-09-20T02:52:30;101111.66;;;15.67;62.62
72548;BME280;60570;50.848;6.776;2022-09-20T02:54:56;101109.78;;;15.71;62.49
72548;BME280;60570;50.848;6.776;2022-09-20T02:56:10;101101.72;;;15.69;62.55
72548;BME280;60570;50.848;6.776;2022-09-20T02:59:51;101107.16;;;15.78;62.35
72548;BME280;60570;50.848;6.776;2022-09-20T03:02:14;101098.69;;;15.62;62.77
72548;BME280;60570;50.848;6.776;2022-09-20T03:03:40;101102.69;;;15.61;62.77
72548;BME280;60570;50.848;6.776;2022-09-20T03:06:02;101106.63;;;15.60;62.75
72548;BME280;60570;50.848;6.776;2022-09-20T03:08:55;101108.75;;;15.63;62.84
72548;BME280;60570;50.848;6.776;2022-09-20T03:10:19;101103.16;;;15.63;62.82
72548;BME280;60570;50.848;6.776;2022-09-20T03:11:35;101112.22;;;15.60;62.62
72548;BME280;60570;50.848;6.776;2022-09-20T03:13:09;101106.31;;;15.62;62.75
72548;BME280;60570;50.848;6.776;2022-09-20T03:14:18;101102.78;;;15.65;62.75
72548;BME280;60570;50.848;6.776;2022-09-20T03:16:09;101110.34;;;15.64;62.79
72548;BME280;60570;50.848;6.776;2022-09-20T03:17:01;101106.31;;;15.62;62.62
72548;BME280;60570;50.848;6.776;2022-09-20T03:18:14;101107.69;;;15.68;62.43
72548;BME280;60570;50.848;6.776;2022-09-20T03:24:35;101110.34;;;15.64;62.35
72548;BME280;60570;50.848;6.776;2022-09-20T03:25:56;101107.69;;;15.68;62.65
72548;BME280;60570;50.848;6.776;2022-09-20T03:31:48;101122.38;;;15.65;62.79
72548;BME280;60570;50.848;6.776;2022-09-20T03:33:12;101120.78;;;15.64;62.44
72548;BME280;60570;50.848;6.776;2022-09-20T03:38:41;101113.88;;;15.61;62.98
72548;BME280;60570;50.848;6.776;2022-09-20T03:42:44;101107.47;;;15.61;62.60
72548;BME280;60570;50.848;6.776;2022-09-20T03:48:56;101097.09;;;15.61;62.55
72548;BME280;60570;50.848;6.776;2022-09-20T03:50:22;101107.91;;;15.63;62.66
72548;BME280;60570;50.848;6.776;2022-09-20T03:54:55;101110.81;;;15.66;62.39
72548;BME280;60570;50.848;6.776;2022-09-20T03:57:33;101109.09;;;15.62;62.51
72548;BME280;60570;50.848;6.776;2022-09-20T04:00:22;101101.03;;;15.60;62.45
72548;BME280;60570;50.848;6.776;2022-09-20T04:07:08;101113.06;;;15.61;62.46
72548;BME280;60570;50.848;6.776;2022-09-20T04:09:35;101108.53;;;15.56;62.66
72548;BME280;60570;50.848;6.776;2022-09-20T04:10:52;101112.84;;;15.54;62.99
72548;BME280;60570;50.848;6.776;2022-09-20T04:12:00;101110.41;;;15.52;63.05
72548;BME280;60570;50.848;6.776;2022-09-20T04:14:17;101130.69;;;15.61;62.38
72548;BME280;60570;50.848;6.776;2022-09-20T04:17:04;101128.34;;;15.63;62.43
72548;BME280;60570;50.848;6.776;2022-09-20T04:18:21;101117.84;;;15.60;62.30
72548;BME280;60570;50.848;6.776;2022-09-20T04:19:36;101120.91;;;15.55;62.68
72548;BME280;60570;50.848;6.776;2022-09-20T04:20:46;101124.63;;;15.59;62.72
72548;BME280;60570;50.848;6.776;2022-09-20T04:21:59;101119.75;;;15.56;62.87
72548;BME280;60570;50.848;6.776;2022-09-20T04:23:09;101122.53;;;15.56;62.64
72548;BME280;60570;50.848;6.776;2022-09-20T04:25:40;101121.47;;;15.61;62.48
72548;BME280;60570;50.848;6.776;2022-09-20T04:26:48;101114.25;;;15.60;62.39
72548;BME280;60570;50.848;6.776;2022-09-20T04:27:54;101115.16;;;15.64;62.31
72548;BME280;60570;50.848;6.776;2022-09-20T04:29:10;101120.22;;;15.58;62.53
72548;BME280;60570;50.848;6.776;2022-09-20T04:30:21;101121.72;;;15.56;62.63
72548;BME280;60570;50.848;6.776;2022-09-20T04:33:55;101125.81;;;15.58;62.54
72548;BME280;60570;50.848;6.776;2022-09-20T04:36:59;101137.81;;;15.59;62.32
72548;BME280;60570;50.848;6.776;2022-09-20T04:38:07;101131.28;;;15.55;62.76
72548;BME280;60570;50.848;6.776;2022-09-20T04:39:33;101127.22;;;15.52;62.58
72548;BME280;60570;50.848;6.776;2022-09-20T04:48:09;101141.06;;;15.61;62.31
72548;BME280;60570;50.848;6.776;2022-09-20T04:50:42;101134.44;;;15.53;62.51
72548;BME280;60570;50.848;6.776;2022-09-20T04:53:43;101134.81;;;15.52;62.93
72548;BME280;60570;50.848;6.776;2022-09-20T04:58:37;101142.25;;;15.36;63.19
72548;BME280;60570;50.848;6.776;2022-09-20T05:00:02;101131.16;;;15.39;62.88
72548;BME280;60570;50.848;6.776;2022-09-20T05:05:13;101149.25;;;15.54;62.37
72548;BME280;60570;50.848;6.776;2022-09-20T05:08:30;101151.97;;;15.50;62.62
72548;BME280;60570;50.848;6.776;2022-09-20T05:18:50;101141.56;;;15.51;62.67
72548;BME280;60570;50.848;6.776;2022-09-20T05:19:31;101140.53;;;15.43;62.87
72548;BME280;60570;50.848;6.776;2022-09-20T05:28:22;101159.91;;;15.48;62.86
72548;BME280;60570;50.848;6.776;2022-09-20T05:29:31;101153.47;;;15.48;62.56
72548;BME280;60570;50.848;6.776;2022-09-20T05:30:47;101162.22;;;15.46;62.72
72548;BME280;60570;50.848;6.776;2022-09-20T05:31:53;101161.16;;;15.39;63.12
72548;BME280;60570;50.848;6.776;2022-09-20T05:33:27;101166.31;;;15.37;63.19
72548;BME280;60570;50.848;6.776;2022-09-20T05:34:41;101168.75;;;15.38;62.86
72548;BME280;60570;50.848;6.776;2022-09-20T05:39:37;101172.22;;;15.35;62.89
72548;BME280;60570;50.848;6.776;2022-09-20T05:40:56;101178.94;;;15.43;62.90
72548;BME280;60570;50.848;6.776;2022-09-20T05:42:11;101174.59;;;15.45;62.75
72548;BME280;60570;50.848;6.776;2022-09-20T05:43:30;101169.22;;;15.40;62.58
72548;BME280;60570;50.848;6.776;2022-09-20T05:47:37;101178.28;;;15.37;63.06
72548;BME280;60570;50.848;6.776;2022-09-20T05:48:52;101176.59;;;15.45;62.52
72548;BME280;60570;50.848;6.776;2022-09-20T05:55:34;101178.75;;;15.39;62.76
72548;BME280;60570;50.848;6.776;2022-09-20T05:57:00;101177.72;;;15.32;62.85
72548;BME280;60570;50.848;6.776;2022-09-20T06:00:23;101173.91;;;15.48;62.51
72548;BME280;60570;50.848;6.776;2022-09-20T06:04:17;101182.75;;;15.38;62.83
72548;BME280;60570;50.848;6.776;2022-09-20T06:05:37;101184.63;;;15.46;62.56
72548;BME280;60570;50.848;6.776;2022-09-20T06:06:56;101184.25;;;15.36;62.75
72548;BME280;60570;50.848;6.776;2022-09-20T06:16:53;101194.41;;;15.40;62.63
72548;BME280;60570;50.848;6.776;2022-09-20T06:18:09;101187.78;;;15.45;62.49
72548;BME280;60570;50.848;6.776;2022-09-20T06:22:16;101197.44;;;15.35;62.84
72548;BME280;60570;50.848;6.776;2022-09-20T06:23:20;101199.06;;;15.36;62.93
72548;BME280;60570;50.848;6.776;2022-09-20T06:26:37;101194.41;;;15.28;62.93
72548;BME280;60570;50.848;6.776;2022-09-20T06:27:50;101193.25;;;15.29;63.22
72548;BME280;60570;50.848;6.776;2022-09-20T06:28:55;101199.91;;;15.37;62.78
72548;BME280;60570;50.848;6.776;2022-09-20T06:30:01;101196.63;;;15.35;62.94
72548;BME280;60570;50.848;6.776;2022-09-20T06:31:03;101194.91;;;15.42;62.31
72548;BME280;60570;50.848;6.776;2022-09-20T06:32:09;101197.44;;;15.35;62.93
72548;BME280;60570;50.848;6.776;2022-09-20T06:33:26;101202.56;;;15.33;62.88
72548;BME280;60570;50.848;6.776;2022-09-20T06:34:28;101199.53;;;15.38;62.68
72548;BME280;60570;50.848;6.776;2022-09-20T06:35:34;101201.41;;;15.34;63.02
72548;BME280;60570;50.848;6.776;2022-09-20T06:36:38;101201.34;;;15.43;62.57
72548;BME280;60570;50.848;6.776;2022-09-20T06:38:28;101198.75;;;15.50;62.35
72548;BME280;60570;50.848;6.776;2022-09-20T06:41:19;101203.38;;;15.34;62.67
72548;BME280;60570;50.848;6.776;2022-09-20T06:42:27;101199.19;;;15.27;63.12
72548;BME280;60570;50.848;6.776;2022-09-20T06:43:28;101195.34;;;15.20;63.17
72548;BME280;60570;50.848;6.776;2022-09-20T06:44:30;101196.63;;;15.22;63.26
72548;BME280;60570;50.848;6.776;2022-09-20T06:45:31;101201.28;;;15.31;62.80
72548;BME280;60570;50.848;6.776;2022-09-20T06:46:34;101198.59;;;15.34;62.87
72548;BME280;60570;50.848;6.776;2022-09-20T06:47:35;101196.84;;;15.29;62.76
72548;BME280;60570;50.848;6.776;2022-09-20T06:48:36;101194.75;;;15.26;63.33
72548;BME280;60570;50.848;6.776;2022-09-20T06:49:39;101198.25;;;15.23;63.21
72548;BME280;60570;50.848;6.776;2022-09-20T06:50:46;101200.09;;;15.19;63.53
72548;BME280;60570;50.848;6.776;2022-09-20T06:51:46;101192.06;;;15.18;63.60
72548;BME280;60570;50.848;6.776;2022-09-20T06:52:49;101200.94;;;15.20;63.49
72548;BME280;60570;50.848;6.776;2022-09-20T06:53:50;101206.19;;;15.21;63.46
72548;BME280;60570;50.848;6.776;2022-09-20T06:54:53;101204.09;;;15.18;63.54
72548;BME280;60570;50.848;6.776;2022-09-20T06:55:55;101201.28;;;15.18;63.38
72548;BME280;60570;50.848;6.776;2022-09-20T06:56:56;101209.69;;;15.18;63.43
72548;BME280;60570;50.848;6.776;2022-09-20T06:57:57;101205.38;;;15.21;63.25
72548;BME280;60570;50.848;6.776;2022-09-20T06:58:57;101209.34;;;15.20;63.16
72548;BME280;60570;50.848;6.776;2022-09-20T06:59:58;101208.50;;;15.19;63.34
72548;BME280;60570;50.848;6.776;2022-09-20T07:00:58;101208.97;;;15.21;63.48
72548;BME280;60570;50.848;6.776;2022-09-20T07:01:59;101211.56;;;15.26;63.18
72548;BME280;60570;50.848;6.776;2022-09-20T07:02:59;101205.50;;;15.24;63.25
72548;BME280;60570;50.848;6.776;2022-09-20T07:04:00;101209.69;;;15.18;63.28
72548;BME280;60570;50.848;6.776;2022-09-20T07:05:02;101216.91;;;15.19;62.98
72548;BME280;60570;50.848;6.776;2022-09-20T07:06:02;101219.84;;;15.23;63.59
72548;BME280;60570;50.848;6.776;2022-09-20T07:07:05;101205.03;;;15.22;63.05
72548;BME280;60570;50.848;6.776;2022-09-20T07:08:06;101212.72;;;15.25;63.09
72548;BME280;60570;50.848;6.776;2022-09-20T07:09:09;101212.13;;;15.20;63.43
72548;BME280;60570;50.848;6.776;2022-09-20T07:10:10;101211.31;;;15.19;63.32
72548;BME280;60570;50.848;6.776;2022-09-20T07:11:14;101211.91;;;15.25;63.55
72548;BME280;60570;50.848;6.776;2022-09-20T07:12:15;101220.06;;;15.30;63.15
72548;BME280;60570;50.848;6.776;2022-09-20T07:13:16;101213.63;;;15.17;63.38
72548;BME280;60570;50.848;6.776;2022-09-20T07:14:19;101207.25;;;15.17;63.58
72548;BME280;60570;50.848;6.776;2022-09-20T07:15:20;101209.91;;;15.25;63.13
72548;BME280;60570;50.848;6.776;2022-09-20T07:16:22;101213.41;;;15.22;63.46
72548;BME280;60570;50.848;6.776;2022-09-20T07:17:23;101210.84;;;15.17;63.53
72548;BME280;60570;50.848;6.776;2022-09-20T07:18:24;101215.50;;;15.25;63.31
72548;BME280;60570;50.848;6.776;2022-09-20T07:19:24;101215.50;;;15.25;63.24
72548;BME280;60570;50.848;6.776;2022-09-20T07:20:25;101215.28;;;15.31;62.93
72548;BME280;60570;50.848;6.776;2022-09-20T07:21:26;101213.06;;;15.24;63.46
72548;BME280;60570;50.848;6.776;2022-09-20T07:22:27;101217.03;;;15.23;63.54
72548;BME280;60570;50.848;6.776;2022-09-20T07:23:28;101212.03;;;15.16;63.58
72548;BME280;60570;50.848;6.776;2022-09-20T07:24:29;101211.09;;;15.24;63.54
72548;BME280;60570;50.848;6.776;2022-09-20T07:25:31;101214.94;;;15.20;63.43
72548;BME280;60570;50.848;6.776;2022-09-20T07:26:31;101206.63;;;15.23;63.34
72548;BME280;60570;50.848;6.776;2022-09-20T07:27:32;101207.34;;;15.20;63.36
72548;BME280;60570;50.848;6.776;2022-09-20T07:28:33;101209.91;;;15.25;63.37
72548;BME280;60570;50.848;6.776;2022-09-20T07:29:34;101212.94;;;15.20;63.27
72548;BME280;60570;50.848;6.776;2022-09-20T07:30:34;101209.91;;;15.25;63.24
72548;BME280;60570;50.848;6.776;2022-09-20T07:31:35;101207.72;;;15.19;63.37
72548;BME280;60570;50.848;6.776;2022-09-20T07:32:35;101208.41;;;15.16;63.81
72548;BME280;60570;50.848;6.776;2022-09-20T07:33:36;101203.25;;;15.18;63.26
72548;BME280;60570;50.848;6.776;2022-09-20T07:34:36;101204.91;;;15.19;63.44
72548;BME280;60570;50.848;6.776;2022-09-20T07:35:36;101212.03;;;15.16;63.72
72548;BME280;60570;50.848;6.776;2022-09-20T07:36:37;101211.78;;;15.21;63.34
72548;BME280;60570;50.848;6.776;2022-09-20T07:37:37;101212.13;;;15.20;63.63
72548;BME280;60570;50.848;6.776;2022-09-20T07:38:41;101205.25;;;15.17;63.56
72548;BME280;60570;50.848;6.776;2022-09-20T07:39:42;101215.16;;;15.15;63.58
72548;BME280;60570;50.848;6.776;2022-09-20T07:40:42;101216.78;;;15.16;63.74
72548;BME280;60570;50.848;6.776;2022-09-20T07:41:45;101212.84;;;15.17;63.87
72548;BME280;60570;50.848;6.776;2022-09-20T07:42:47;101213.63;;;15.17;63.61
72548;BME280;60570;50.848;6.776;2022-09-20T07:43:48;101217.84;;;15.23;63.59
72548;BME280;60570;50.848;6.776;2022-09-20T07:44:49;101222.28;;;15.24;63.22
72548;BME280;60570;50.848;6.776;2022-09-20T07:45:54;101225.44;;;15.23;63.67
72548;BME280;60570;50.848;6.776;2022-09-20T07:46:58;101219.97;;;15.26;63.37
72548;BME280;60570;50.848;6.776;2022-09-20T07:47:59;101216.91;;;15.19;63.63
72548;BME280;60570;50.848;6.776;2022-09-20T07:49:05;101221.09;;;15.25;63.40
72548;BME280;60570;50.848;6.776;2022-09-20T07:50:06;101221.09;;;15.25;63.57
72548;BME280;60570;50.848;6.776;2022-09-20T07:51:11;101226.03;;;15.28;63.20
72548;BME280;60570;50.848;6.776;2022-09-20T07:52:12;101215.97;;;15.27;63.56
72548;BME280;60570;50.848;6.776;2022-09-20T07:53:13;101222.63;;;15.35;63.21
72548;BME280;60570;50.848;6.776;2022-09-20T07:54:14;101222.63;;;15.35;63.01
72548;BME280;60570;50.848;6.776;2022-09-20T07:55:22;101219.25;;;15.29;63.27
72548;BME280;60570;50.848;6.776;2022-09-20T07:56:23;101225.78;;;15.34;62.79
72548;BME280;60570;50.848;6.776;2022-09-20T07:57:23;101224.97;;;15.33;63.12
72548;BME280;60570;50.848;6.776;2022-09-20T07:58:24;101224.63;;;15.35;63.13
72548;BME280;60570;50.848;6.776;2022-09-20T07:59:25;101229.28;;;15.31;63.30
72548;BME280;60570;50.848;6.776;2022-09-20T08:00:25;101230.34;;;15.38;63.00
72548;BME280;60570;50.848;6.776;2022-09-20T08:01:25;101233.72;;;15.32;63.50
72548;BME280;60570;50.848;6.776;2022-09-20T08:02:26;101230.69;;;15.37;63.12
72548;BME280;60570;50.848;6.776;2022-09-20T08:03:28;101232.66;;;15.36;63.06
72548;BME280;60570;50.848;6.776;2022-09-20T08:04:36;101234.75;;;15.39;62.83
72548;BME280;60570;50.848;6.776;2022-09-20T08:05:36;101231.63;;;15.41;62.72
72548;BME280;60570;50.848;6.776;2022-09-20T08:06:42;101230.47;;;15.42;62.76
72548;BME280;60570;50.848;6.776;2022-09-20T08:07:43;101227.44;;;15.47;62.64
72548;BME280;60570;50.848;6.776;2022-09-20T08:08:44;101236.19;;;15.45;62.74
72548;BME280;60570;50.848;6.776;2022-09-20T08:09:44;101237.38;;;15.44;62.40
72548;BME280;60570;50.848;6.776;2022-09-20T08:10:45;101241.31;;;15.43;62.67
72548;BME280;60570;50.848;6.776;2022-09-20T08:11:45;101242.16;;;15.44;62.86
72548;BME280;60570;50.848;6.776;2022-09-20T08:12:46;101230.59;;;15.45;62.86
72548;BME280;60570;50.848;6.776;2022-09-20T08:13:48;101245.88;;;15.48;62.65
72548;BME280;60570;50.848;6.776;2022-09-20T08:14:49;101239.81;;;15.46;63.07
72548;BME280;60570;50.848;6.776;2022-09-20T08:15:49;101240.75;;;15.50;62.64
72548;BME280;60570;50.848;6.776;2022-09-20T08:16:50;101244.94;;;15.44;62.77
72548;BME280;60570;50.848;6.776;2022-09-20T08:17:51;101241.78;;;15.45;62.89
72548;BME280;60570;50.848;6.776;2022-09-20T08:18:59;101244.13;;;15.43;62.58
72548;BME280;60570;50.848;6.776;2022-09-20T08:20:00;101237.47;;;15.48;62.61
72548;BME280;60570;50.848;6.776;2022-09-20T08:21:04;101248.09;;;15.42;62.92
72548;BME280;60570;50.848;6.776;2022-09-20T08:22:05;101246.72;;;15.48;62.73
72548;BME280;60570;50.848;6.776;2022-09-20T08:23:06;101246.13;;;15.43;62.97
72548;BME280;60570;50.848;6.776;2022-09-20T08:24:08;101251.94;;;15.50;62.81
72548;BME280;60570;50.848;6.776;2022-09-20T08:25:09;101246.47;;;15.53;62.56
72548;BME280;60570;50.848;6.776;2022-09-20T08:26:13;101245.06;;;15.59;62.05
72548;BME280;60570;50.848;6.776;2022-09-20T08:27:14;101248.91;;;15.55;62.57
72548;BME280;60570;50.848;6.776;2022-09-20T08:28:14;101252.06;;;15.53;62.42
72548;BME280;60570;50.848;6.776;2022-09-20T08:29:15;101248.69;;;15.60;62.58
72548;BME280;60570;50.848;6.776;2022-09-20T08:30:15;101242.16;;;15.56;62.54
72548;BME280;60570;50.848;6.776;2022-09-20T08:31:17;101247.97;;;15.63;62.19
72548;BME280;60570;50.848;6.776;2022-09-20T08:32:18;101246.47;;;15.53;62.36
72548;BME280;60570;50.848;6.776;2022-09-20T08:33:18;101247.03;;;15.59;62.49
72548;BME280;60570;50.848;6.776;2022-09-20T08:34:19;101243.09;;;15.60;62.57
72548;BME280;60570;50.848;6.776;2022-09-20T08:35:19;101245.88;;;15.60;62.30
72548;BME280;60570;50.848;6.776;2022-09-20T08:36:23;101239.09;;;15.61;62.22
72548;BME280;60570;50.848;6.776;2022-09-20T08:37:24;101245.41;;;15.58;62.42
72548;BME280;60570;50.848;6.776;2022-09-20T08:38:25;101243.78;;;15.57;62.55
72548;BME280;60570;50.848;6.776;2022-09-20T08:39:27;101242.38;;;15.63;62.25
72548;BME280;60570;50.848;6.776;2022-09-20T08:40:28;101247.28;;;15.54;62.56
72548;BME280;60570;50.848;6.776;2022-09-20T08:41:45;101249.38;;;15.57;62.56
72548;BME280;60570;50.848;6.776;2022-09-20T08:42:46;101241.44;;;15.59;62.46
72548;BME280;60570;50.848;6.776;2022-09-20T08:44:45;101246.81;;;15.64;62.14
72548;BME280;60570;50.848;6.776;2022-09-20T08:45:21;101243.78;;;15.57;62.57
72548;BME280;60570;50.848;6.776;2022-09-20T08:46:28;101243.31;;;15.55;62.66